Seaway II — ZMR3466 — position and weather

sailwx.info

Track history (hours):
 
Tides and Currents Weather Stations Pressure Air Temp Water Temp Dewpoint Dewpoint Depression Visibility Wind Speed Wind Dir Waves Ship Positions

Seaway II

Last reported at 2015-Mar-29 03:27 UTC. Time now 2015-Mar-29 06:09 UTC.
Position S 36°49' E 174°52'.

Length 37 m.

Type: Passenger vessel. MMSI: 512001026.

Date/timePositionNaut miles runAvg speedWind from/ knotsBaromVisibWave heightAir tempDewpointWater temp
2015-Mar-29 03:27S 36°49' E 174°52'2 0.6
2015-Mar-29 00:33S 36°49' E 174°54'5 1.6
2015-Mar-28 21:22S 36°49' E 175°01'12 2.1
2015-Mar-28 15:28S 36°50' E 174°45'0 0.0
2015-Mar-28 14:16S 36°50' E 174°45'0 0.0
2015-Mar-28 13:28S 36°50' E 174°45'0 0.0
2015-Mar-28 05:23S 36°50' E 174°46'5 1.0
2015-Mar-28 00:27S 36°49' E 174°52'5 1.4
2015-Mar-27 21:16S 36°50' E 174°58'5 0.4
2015-Mar-27 08:09S 36°49' E 174°51'6 6.3
2015-Mar-27 07:16S 36°50' E 174°58'4 1.2
2015-Mar-27 03:33S 36°51' E 174°54'6 5.8
2015-Mar-27 02:33S 36°49' E 175°00'6 5.8
2015-Mar-27 01:33S 36°51' E 174°54'3 2.1
2015-Mar-27 00:19S 36°49' E 174°54'2 1.8
2015-Mar-26 23:26S 36°50' E 174°56'3 1.8
2015-Mar-26 21:33S 36°53' E 174°54'0 0.0
2015-Mar-26 20:28S 36°53' E 174°54'4 3.9
2015-Mar-26 19:33S 36°50' E 174°56'1 0.7
2015-Mar-26 18:32S 36°50' E 174°56'2 1.9
2015-Mar-26 17:33S 36°51' E 174°54'2 0.2
2015-Mar-26 08:18S 36°53' E 174°54'0 0.0
2015-Mar-26 06:24S 36°53' E 174°54'2 1.9
2015-Mar-26 05:33S 36°51' E 174°54'1 0.1
2015-Mar-25 23:04S 36°52' E 174°54'1 0.4
2015-Mar-25 20:22S 36°51' E 174°54'1 0.1
2015-Mar-25 05:33S 36°50' E 174°53'3 3.3
2015-Mar-25 04:30S 36°50' E 174°57'3 0.9
2015-Mar-25 01:11S 36°52' E 174°54'3 1.7
2015-Mar-24 23:33S 36°50' E 174°57'3 2.5
2015-Mar-24 22:21S 36°52' E 174°54'3 0.9
2015-Mar-24 18:32S 36°50' E 174°57'3 3.2
2015-Mar-24 17:33S 36°51' E 174°54'4 3.5
2015-Mar-24 16:33S 36°50' E 174°58'4 1.4
2015-Mar-24 13:32S 36°53' E 174°54'0 0.0
2015-Mar-24 12:32S 36°53' E 174°54'0 0.0
2015-Mar-24 11:20S 36°53' E 174°54'0 0.0
2015-Mar-24 10:32S 36°53' E 174°54'0 0.0
2015-Mar-24 09:32S 36°53' E 174°54'0 0.0
2015-Mar-24 07:32S 36°53' E 174°54'0 0.0
2015-Mar-24 06:31S 36°53' E 174°54'2 1.9
2015-Mar-24 05:33S 36°51' E 174°53'2 2.0
2015-Mar-24 04:33S 36°50' E 174°55'2 0.7
2015-Mar-24 01:33S 36°50' E 174°58'4 4.1
2015-Mar-24 00:26S 36°53' E 174°54'10 7.0
2015-Mar-23 23:04S 36°44' E 174°57'0 0.0
2015-Mar-23 22:16S 36°44' E 174°57'5 6.8
2015-Mar-23 21:33S 36°48' E 174°54'3 1.2
2015-Mar-23 19:31S 36°50' E 174°57'1 0.5
2015-Mar-23 16:32S 36°50' E 174°55'3 1.1
2015-Mar-23 13:29S 36°53' E 174°54'0 0.0
2015-Mar-23 07:28S 36°53' E 174°54'3 1.1
2015-Mar-23 04:34S 36°50' E 174°55'3 1.6
2015-Mar-23 02:31S 36°53' E 174°54'7 3.4
2015-Mar-23 00:29S 36°50' E 174°46'9 9.6
2015-Mar-22 23:32S 36°50' E 174°57'3 3.2
2015-Mar-22 22:28S 36°49' E 175°01'1313.9
2015-Mar-22 21:33S 36°50' E 174°46'5 5.0
2015-Mar-22 20:28S 36°50' E 174°52'1 0.5
2015-Mar-22 18:24S 36°51' E 174°54'2 2.1
2015-Mar-22 17:26S 36°50' E 174°56'1 1.0
2015-Mar-22 16:31S 36°50' E 174°55'3 0.5
2015-Mar-22 09:13S 36°53' E 174°54'0 0.0
2015-Mar-22 08:19S 36°53' E 174°54'0 0.0
2015-Mar-22 06:32S 36°53' E 174°54'4 1.3
2015-Mar-22 03:32S 36°50' E 174°51'3 2.8
2015-Mar-22 02:21S 36°47' E 174°54'2 1.3
2015-Mar-22 00:25S 36°49' E 174°52'8 2.6
2015-Mar-21 21:31S 36°49' E 175°01'8 0.4
2015-Mar-21 03:27S 36°50' E 174°52'0 0.0
2015-Mar-21 00:27S 36°49' E 174°52'6 2.1
2015-Mar-20 21:23S 36°49' E 175°00'0 0.0
2015-Mar-20 07:23S 36°49' E 175°00'3 1.0
2015-Mar-20 04:33S 36°50' E 174°57'3 0.3
2015-Mar-19 19:32S 36°51' E 174°54'3 2.7
2015-Mar-19 18:31S 36°50' E 174°57'0 0.1
2015-Mar-19 16:33S 36°50' E 174°57'3 0.3
2015-Mar-19 05:32S 36°51' E 174°54'3 2.9
2015-Mar-19 04:31S 36°50' E 174°57'  
Track history (hours):
 
Tides and Currents Weather Stations Pressure Air Temp Water Temp Dewpoint Dewpoint Depression Visibility Wind Speed Wind Dir Waves Ship Positions

Seaway II

Last reported at 2015-Mar-29 03:27 UTC. Time now 2015-Mar-29 06:09 UTC.
Position S 36°49' E 174°52'.

Length 37 m.

Type: Passenger vessel. MMSI: 512001026.

Date/timePositionNaut miles runAvg speedWind from/ knotsBaromVisibWave heightAir tempDewpointWater temp
2015-Mar-29 03:27S 36°49' E 174°52'2 0.6
2015-Mar-29 00:33S 36°49' E 174°54'5 1.6
2015-Mar-28 21:22S 36°49' E 175°01'12 2.1
2015-Mar-28 15:28S 36°50' E 174°45'0 0.0
2015-Mar-28 14:16S 36°50' E 174°45'0 0.0
2015-Mar-28 13:28S 36°50' E 174°45'0 0.0
2015-Mar-28 05:23S 36°50' E 174°46'5 1.0
2015-Mar-28 00:27S 36°49' E 174°52'5 1.4
2015-Mar-27 21:16S 36°50' E 174°58'5 0.4
2015-Mar-27 08:09S 36°49' E 174°51'6 6.3
2015-Mar-27 07:16S 36°50' E 174°58'4 1.2
2015-Mar-27 03:33S 36°51' E 174°54'6 5.8
2015-Mar-27 02:33S 36°49' E 175°00'6 5.8
2015-Mar-27 01:33S 36°51' E 174°54'3 2.1
2015-Mar-27 00:19S 36°49' E 174°54'2 1.8
2015-Mar-26 23:26S 36°50' E 174°56'3 1.8
2015-Mar-26 21:33S 36°53' E 174°54'0 0.0
2015-Mar-26 20:28S 36°53' E 174°54'4 3.9
2015-Mar-26 19:33S 36°50' E 174°56'1 0.7
2015-Mar-26 18:32S 36°50' E 174°56'2 1.9
2015-Mar-26 17:33S 36°51' E 174°54'2 0.2
2015-Mar-26 08:18S 36°53' E 174°54'0 0.0
2015-Mar-26 06:24S 36°53' E 174°54'2 1.9
2015-Mar-26 05:33S 36°51' E 174°54'1 0.1
2015-Mar-25 23:04S 36°52' E 174°54'1 0.4
2015-Mar-25 20:22S 36°51' E 174°54'1 0.1
2015-Mar-25 05:33S 36°50' E 174°53'3 3.3
2015-Mar-25 04:30S 36°50' E 174°57'3 0.9
2015-Mar-25 01:11S 36°52' E 174°54'3 1.7
2015-Mar-24 23:33S 36°50' E 174°57'3 2.5
2015-Mar-24 22:21S 36°52' E 174°54'3 0.9
2015-Mar-24 18:32S 36°50' E 174°57'3 3.2
2015-Mar-24 17:33S 36°51' E 174°54'4 3.5
2015-Mar-24 16:33S 36°50' E 174°58'4 1.4
2015-Mar-24 13:32S 36°53' E 174°54'0 0.0
2015-Mar-24 12:32S 36°53' E 174°54'0 0.0
2015-Mar-24 11:20S 36°53' E 174°54'0 0.0
2015-Mar-24 10:32S 36°53' E 174°54'0 0.0
2015-Mar-24 09:32S 36°53' E 174°54'0 0.0
2015-Mar-24 07:32S 36°53' E 174°54'0 0.0
2015-Mar-24 06:31S 36°53' E 174°54'2 1.9
2015-Mar-24 05:33S 36°51' E 174°53'2 2.0
2015-Mar-24 04:33S 36°50' E 174°55'2 0.7
2015-Mar-24 01:33S 36°50' E 174°58'4 4.1
2015-Mar-24 00:26S 36°53' E 174°54'10 7.0
2015-Mar-23 23:04S 36°44' E 174°57'0 0.0
2015-Mar-23 22:16S 36°44' E 174°57'5 6.8
2015-Mar-23 21:33S 36°48' E 174°54'3 1.2
2015-Mar-23 19:31S 36°50' E 174°57'1 0.5
2015-Mar-23 16:32S 36°50' E 174°55'3 1.1
2015-Mar-23 13:29S 36°53' E 174°54'0 0.0
2015-Mar-23 07:28S 36°53' E 174°54'3 1.1
2015-Mar-23 04:34S 36°50' E 174°55'3 1.6
2015-Mar-23 02:31S 36°53' E 174°54'7 3.4
2015-Mar-23 00:29S 36°50' E 174°46'9 9.6
2015-Mar-22 23:32S 36°50' E 174°57'3 3.2
2015-Mar-22 22:28S 36°49' E 175°01'1313.9
2015-Mar-22 21:33S 36°50' E 174°46'5 5.0
2015-Mar-22 20:28S 36°50' E 174°52'1 0.5
2015-Mar-22 18:24S 36°51' E 174°54'2 2.1
2015-Mar-22 17:26S 36°50' E 174°56'1 1.0
2015-Mar-22 16:31S 36°50' E 174°55'3 0.5
2015-Mar-22 09:13S 36°53' E 174°54'0 0.0
2015-Mar-22 08:19S 36°53' E 174°54'0 0.0
2015-Mar-22 06:32S 36°53' E 174°54'4 1.3
2015-Mar-22 03:32S 36°50' E 174°51'3 2.8
2015-Mar-22 02:21S 36°47' E 174°54'2 1.3
2015-Mar-22 00:25S 36°49' E 174°52'8 2.6
2015-Mar-21 21:31S 36°49' E 175°01'8 0.4
2015-Mar-21 03:27S 36°50' E 174°52'0 0.0
2015-Mar-21 00:27S 36°49' E 174°52'6 2.1
2015-Mar-20 21:23S 36°49' E 175°00'0 0.0
2015-Mar-20 07:23S 36°49' E 175°00'3 1.0
2015-Mar-20 04:33S 36°50' E 174°57'3 0.3
2015-Mar-19 19:32S 36°51' E 174°54'3 2.7
2015-Mar-19 18:31S 36°50' E 174°57'0 0.1
2015-Mar-19 16:33S 36°50' E 174°57'3 0.3
2015-Mar-19 05:32S 36°51' E 174°54'3 2.9
2015-Mar-19 04:31S 36°50' E 174°57'  

Dump ship's entire track history